createdAt,value
2022-10-09T00:01:24.333Z,6.00
2022-10-09T00:03:54.090Z,6.00
2022-10-09T00:06:24.486Z,6.00
2022-10-09T00:08:53.005Z,5.90
2022-10-09T00:11:23.414Z,5.90
2022-10-09T00:13:54.193Z,5.90
2022-10-09T00:16:23.343Z,5.90
2022-10-09T00:18:52.216Z,5.80
2022-10-09T00:21:23.123Z,5.80
2022-10-09T00:23:52.217Z,5.90
2022-10-09T00:26:21.199Z,5.90
2022-10-09T00:28:50.046Z,5.80
2022-10-09T00:31:21.005Z,5.90
2022-10-09T00:33:49.599Z,5.80
2022-10-09T00:36:20.337Z,5.80
2022-10-09T00:38:49.140Z,5.80
2022-10-09T00:41:19.056Z,5.70
2022-10-09T00:43:49.824Z,5.80
2022-10-09T00:46:36.135Z,5.70
2022-10-09T00:49:20.988Z,5.70
2022-10-09T00:51:51.952Z,5.70
2022-10-09T00:54:24.448Z,5.70
2022-10-09T00:56:53.604Z,5.70
2022-10-09T00:59:22.335Z,5.70
2022-10-09T01:01:52.055Z,5.60
2022-10-09T01:04:20.481Z,5.60
2022-10-09T01:07:03.443Z,5.60
2022-10-09T01:09:39.467Z,5.50
2022-10-09T01:12:16.172Z,5.50
2022-10-09T01:14:50.589Z,5.50
2022-10-09T01:17:29.132Z,5.40
2022-10-09T01:20:23.105Z,5.40
2022-10-09T01:23:15.467Z,5.30
2022-10-09T01:25:54.963Z,5.30
2022-10-09T01:28:28.864Z,5.30
2022-10-09T01:30:59.570Z,5.30
2022-10-09T01:33:29.483Z,5.30
2022-10-09T01:35:59.101Z,5.20
2022-10-09T01:38:29.148Z,5.20
2022-10-09T01:40:58.095Z,5.20
2022-10-09T01:43:27.790Z,5.10
2022-10-09T01:46:21.661Z,5.10
2022-10-09T01:48:56.493Z,5.10
2022-10-09T01:51:31.695Z,5.10
2022-10-09T01:54:04.305Z,5.00
2022-10-09T01:56:35.724Z,5.00
2022-10-09T01:59:14.838Z,5.00
2022-10-09T02:01:45.187Z,5.00
2022-10-09T02:04:15.586Z,5.00
2022-10-09T02:06:44.933Z,5.00
2022-10-09T02:09:15.065Z,4.90
2022-10-09T02:11:47.871Z,5.00
2022-10-09T02:14:18.157Z,5.00
2022-10-09T02:16:48.699Z,5.00
2022-10-09T02:19:22.690Z,4.90
2022-10-09T02:21:56.088Z,4.80
2022-10-09T02:24:25.736Z,4.90
2022-10-09T02:26:56.178Z,4.90
2022-10-09T02:29:26.297Z,4.90
2022-10-09T02:31:54.584Z,4.90
2022-10-09T02:34:23.090Z,4.90
2022-10-09T02:36:51.316Z,5.00
2022-10-09T02:39:19.608Z,4.90
2022-10-09T02:41:47.730Z,5.00
2022-10-09T02:44:15.995Z,5.10
2022-10-09T02:46:45.600Z,4.90
2022-10-09T02:49:14.016Z,4.90
2022-10-09T02:51:42.292Z,4.90
2022-10-09T02:54:10.838Z,4.90
2022-10-09T02:56:39.353Z,4.90
2022-10-09T02:59:07.775Z,5.00
2022-10-09T03:01:36.780Z,4.90
2022-10-09T03:04:06.453Z,4.80
2022-10-09T03:06:35.318Z,4.80
2022-10-09T03:09:03.903Z,4.90
2022-10-09T03:11:32.232Z,4.80
2022-10-09T03:14:00.583Z,4.80
2022-10-09T03:16:29.011Z,4.70
2022-10-09T03:18:58.480Z,4.80
2022-10-09T03:21:29.036Z,4.80
2022-10-09T03:23:57.570Z,4.80
2022-10-09T03:26:27.837Z,4.80
2022-10-09T03:28:56.949Z,4.80
2022-10-09T03:31:50.409Z,4.90
2022-10-09T03:34:15.459Z,4.70
2022-10-09T03:36:44.992Z,4.70
2022-10-09T03:39:13.276Z,4.80
2022-10-09T03:41:41.527Z,4.70
2022-10-09T03:44:09.787Z,4.70
2022-10-09T03:46:38.049Z,4.70
2022-10-09T03:49:06.228Z,4.80
2022-10-09T03:51:34.548Z,4.70
2022-10-09T03:54:04.167Z,4.80
2022-10-09T03:56:32.405Z,4.80
2022-10-09T03:59:00.679Z,4.80
2022-10-09T04:01:28.945Z,4.80
2022-10-09T04:03:57.200Z,4.80
2022-10-09T04:06:25.393Z,4.80
2022-10-09T04:08:53.844Z,4.80
2022-10-09T04:11:23.492Z,4.80
2022-10-09T04:13:51.690Z,4.80
2022-10-09T04:16:19.897Z,4.80
2022-10-09T04:18:48.761Z,4.80
2022-10-09T04:21:17.071Z,4.70
2022-10-09T04:23:45.317Z,4.80
2022-10-09T04:26:14.788Z,4.80
2022-10-09T04:28:44.956Z,4.70
2022-10-09T04:31:13.347Z,4.70
2022-10-09T04:33:41.564Z,4.70
2022-10-09T04:36:09.736Z,4.70
2022-10-09T04:38:37.920Z,4.70
2022-10-09T04:41:07.957Z,4.70
2022-10-09T04:43:36.576Z,4.70
2022-10-09T04:46:12.044Z,4.70
2022-10-09T04:48:41.092Z,4.70
2022-10-09T04:51:09.636Z,4.70
2022-10-09T04:53:39.089Z,4.60
2022-10-09T04:56:09.338Z,4.60
2022-10-09T04:58:39.651Z,4.60
2022-10-09T05:01:11.767Z,4.60
2022-10-09T05:03:40.284Z,4.60
2022-10-09T05:06:11.015Z,4.60
2022-10-09T05:08:40.112Z,4.50
2022-10-09T05:11:10.200Z,4.50
2022-10-09T05:13:40.684Z,4.40
2022-10-09T05:16:12.178Z,4.40
2022-10-09T05:18:44.164Z,4.40
2022-10-09T05:21:12.913Z,4.40
2022-10-09T05:23:41.451Z,4.50
2022-10-09T05:26:12.271Z,4.40
2022-10-09T05:28:40.846Z,4.40
2022-10-09T05:31:14.697Z,4.50
2022-10-09T05:33:42.906Z,4.30
2022-10-09T05:36:11.092Z,4.30
2022-10-09T05:38:39.359Z,4.30
2022-10-09T05:41:09.033Z,4.30
2022-10-09T05:43:39.225Z,4.30
2022-10-09T05:46:10.815Z,4.30
2022-10-09T05:48:40.416Z,4.30
2022-10-09T05:51:10.652Z,4.30
2022-10-09T05:53:39.559Z,4.30
2022-10-09T05:56:16.148Z,4.30
2022-10-09T05:58:45.273Z,4.30
2022-10-09T06:01:14.928Z,4.30
2022-10-09T06:03:43.106Z,4.30
2022-10-09T06:06:11.337Z,4.30
2022-10-09T06:08:39.866Z,4.30
2022-10-09T06:11:15.463Z,4.30
2022-10-09T06:13:44.607Z,4.30
2022-10-09T06:16:15.420Z,4.40
2022-10-09T06:18:49.072Z,4.40
2022-10-09T06:21:18.205Z,4.40
2022-10-09T06:23:49.992Z,4.40
2022-10-09T06:26:18.408Z,4.40
2022-10-09T06:28:47.376Z,4.40
2022-10-09T06:31:19.128Z,4.50
2022-10-09T06:33:48.661Z,4.60
2022-10-09T06:36:18.361Z,4.50
2022-10-09T06:38:46.908Z,4.60
2022-10-09T06:41:16.752Z,4.80
2022-10-09T06:43:51.353Z,4.70
2022-10-09T06:46:22.677Z,4.80
2022-10-09T06:48:51.447Z,4.90
2022-10-09T06:51:21.644Z,4.80
2022-10-09T06:53:51.428Z,4.90
2022-10-09T06:56:21.022Z,5.00
2022-10-09T06:58:49.736Z,5.00
2022-10-09T07:01:21.077Z,5.10
2022-10-09T07:03:53.640Z,5.20
2022-10-09T07:06:23.467Z,5.30
2022-10-09T07:08:53.001Z,5.30
2022-10-09T07:11:23.235Z,5.40
2022-10-09T07:13:54.278Z,5.50
2022-10-09T07:16:25.549Z,5.50
2022-10-09T07:18:53.898Z,5.60
2022-10-09T07:21:23.871Z,5.80
2022-10-09T07:23:54.018Z,5.90
2022-10-09T07:26:24.953Z,6.00
2022-10-09T07:28:53.956Z,6.20
2022-10-09T07:31:23.709Z,6.20
2022-10-09T07:33:53.489Z,6.40
2022-10-09T07:36:21.980Z,6.50
2022-10-09T07:38:51.299Z,6.60
2022-10-09T07:41:19.728Z,6.80
2022-10-09T07:43:48.009Z,6.90
2022-10-09T07:46:18.330Z,7.00
2022-10-09T07:48:49.198Z,7.10
2022-10-09T07:51:18.896Z,7.20
2022-10-09T07:53:47.648Z,7.40
2022-10-09T07:56:16.546Z,7.60
2022-10-09T07:58:45.011Z,7.80
2022-10-09T08:01:17.469Z,7.80
2022-10-09T08:03:49.864Z,7.90
2022-10-09T08:06:19.075Z,8.10
2022-10-09T08:08:50.415Z,8.20
2022-10-09T08:11:20.132Z,8.40
2022-10-09T08:13:49.513Z,8.50
2022-10-09T08:16:18.966Z,8.60
2022-10-09T08:18:49.236Z,8.80
2022-10-09T08:21:19.419Z,8.90
2022-10-09T08:23:47.909Z,9.00
2022-10-09T08:26:17.810Z,9.20
2022-10-09T08:28:50.595Z,9.30
2022-10-09T08:31:19.169Z,9.40
2022-10-09T08:33:52.271Z,9.60
2022-10-09T08:36:20.573Z,9.70
2022-10-09T08:38:49.416Z,9.80
2022-10-09T08:41:27.096Z,9.90
2022-10-09T08:44:02.367Z,10.10
2022-10-09T08:46:36.620Z,10.20
2022-10-09T08:49:06.636Z,10.30
2022-10-09T08:51:38.787Z,10.50
2022-10-09T08:54:16.304Z,10.60
2022-10-09T08:56:44.786Z,10.60
2022-10-09T08:59:13.306Z,10.80
2022-10-09T09:01:49.310Z,10.80
2022-10-09T09:04:38.633Z,10.90
2022-10-09T09:07:15.015Z,11.00
2022-10-09T09:09:53.230Z,11.20
2022-10-09T09:12:33.965Z,11.40
2022-10-09T09:15:26.704Z,11.40
2022-10-09T09:18:02.214Z,11.60
2022-10-09T09:20:41.009Z,11.70
2022-10-09T09:23:15.005Z,11.90
2022-10-09T09:25:46.122Z,12.00
2022-10-09T09:28:19.436Z,12.10
2022-10-09T09:30:52.197Z,12.20
2022-10-09T09:33:25.436Z,12.20
2022-10-09T09:36:03.082Z,12.40
2022-10-09T09:38:31.474Z,12.50
2022-10-09T09:41:00.128Z,12.60
2022-10-09T09:43:28.800Z,12.80
2022-10-09T09:45:58.935Z,12.90
2022-10-09T09:48:34.433Z,13.00
2022-10-09T09:51:26.791Z,13.10
2022-10-09T09:53:57.917Z,13.20
2022-10-09T09:56:59.640Z,13.40
2022-10-09T09:59:30.870Z,13.50
2022-10-09T10:02:04.247Z,13.70
2022-10-09T10:04:32.932Z,13.90
2022-10-09T10:07:02.571Z,14.10
2022-10-09T10:09:31.868Z,14.20
2022-10-09T10:12:03.551Z,14.30
2022-10-09T10:14:32.550Z,14.50
2022-10-09T10:17:01.871Z,14.70
2022-10-09T10:19:34.841Z,14.80
2022-10-09T10:22:07.369Z,14.90
2022-10-09T10:24:41.563Z,15.10
2022-10-09T10:27:19.052Z,15.20
2022-10-09T10:29:48.849Z,15.40
2022-10-09T10:32:21.724Z,15.50
2022-10-09T10:34:54.459Z,15.60
2022-10-09T10:37:32.933Z,15.80
2022-10-09T10:40:06.727Z,15.90
2022-10-09T10:42:41.794Z,16.10
2022-10-09T10:45:15.948Z,16.20
2022-10-09T10:47:50.221Z,16.30
2022-10-09T10:50:20.406Z,16.40
2022-10-09T10:53:04.785Z,16.50
2022-10-09T10:55:44.524Z,16.50
2022-10-09T10:58:40.920Z,16.50
2022-10-09T11:01:28.988Z,16.50
2022-10-09T11:04:21.272Z,16.60
2022-10-09T11:06:57.148Z,16.60
2022-10-09T11:09:35.542Z,16.60
2022-10-09T11:12:24.761Z,16.70
2022-10-09T11:15:07.810Z,16.70
2022-10-09T11:17:45.409Z,16.80
2022-10-09T11:20:42.191Z,16.90
2022-10-09T11:23:20.733Z,16.90
2022-10-09T11:25:57.438Z,17.00
2022-10-09T11:28:29.534Z,17.10
2022-10-09T11:31:03.049Z,17.20
2022-10-09T11:33:36.824Z,17.30
2022-10-09T11:36:13.414Z,17.30
2022-10-09T11:38:47.506Z,17.20
2022-10-09T11:41:17.721Z,17.20
2022-10-09T11:43:55.783Z,17.20
2022-10-09T11:46:33.794Z,17.40
2022-10-09T11:49:10.924Z,17.50
2022-10-09T11:51:47.276Z,17.60
2022-10-09T11:54:19.649Z,17.70
2022-10-09T11:56:57.088Z,17.70
2022-10-09T11:59:30.086Z,17.80
2022-10-09T12:01:59.701Z,17.70
2022-10-09T12:04:50.575Z,17.70
2022-10-09T12:07:29.556Z,17.80
2022-10-09T12:10:01.659Z,17.80
2022-10-09T12:12:31.906Z,17.70
2022-10-09T12:15:13.304Z,17.70
2022-10-09T12:17:50.012Z,17.70
2022-10-09T12:20:21.377Z,17.90
2022-10-09T12:23:14.381Z,17.90
2022-10-09T12:25:46.117Z,18.00
2022-10-09T12:28:26.958Z,18.00
2022-10-09T12:30:56.466Z,18.00
2022-10-09T12:33:28.880Z,18.00
2022-10-09T12:36:04.806Z,18.00
2022-10-09T12:38:33.952Z,18.00
2022-10-09T12:41:04.974Z,18.10
2022-10-09T12:43:36.399Z,18.00
2022-10-09T12:46:05.072Z,18.10
2022-10-09T12:48:39.430Z,18.10
2022-10-09T12:51:16.098Z,18.20
2022-10-09T12:53:48.974Z,18.20
2022-10-09T12:56:23.769Z,18.30
2022-10-09T12:58:54.002Z,18.40
2022-10-09T13:01:23.224Z,18.40
2022-10-09T13:03:57.536Z,18.40
2022-10-09T13:06:28.370Z,18.40
2022-10-09T13:08:59.335Z,18.50
2022-10-09T13:11:33.863Z,18.40
2022-10-09T13:14:03.760Z,18.40
2022-10-09T13:16:43.590Z,18.50
2022-10-09T13:19:23.683Z,18.50
2022-10-09T13:22:06.408Z,18.70
2022-10-09T13:24:35.759Z,18.70
2022-10-09T13:27:05.419Z,18.80
2022-10-09T13:29:35.068Z,18.80
2022-10-09T13:32:03.673Z,18.80
2022-10-09T13:34:31.875Z,18.80
2022-10-09T13:37:00.168Z,18.90
2022-10-09T13:39:29.855Z,18.90
2022-10-09T13:42:00.056Z,18.90
2022-10-09T13:44:28.320Z,18.90
2022-10-09T13:46:57.896Z,19.00
2022-10-09T13:49:26.163Z,19.00
2022-10-09T13:51:54.491Z,19.00
2022-10-09T13:54:22.709Z,19.00
2022-10-09T13:56:50.986Z,19.00
2022-10-09T13:59:19.289Z,19.00
2022-10-09T14:01:47.665Z,19.00
2022-10-09T14:04:18.277Z,19.00
2022-10-09T14:06:46.843Z,19.00
2022-10-09T14:09:15.021Z,18.90
2022-10-09T14:11:43.364Z,18.90
2022-10-09T14:14:11.552Z,18.80
2022-10-09T14:16:39.738Z,18.70
2022-10-09T14:19:08.393Z,18.80
2022-10-09T14:21:37.993Z,18.80
2022-10-09T14:24:06.780Z,18.80
2022-10-09T14:26:35.141Z,18.90
2022-10-09T14:29:04.271Z,18.80
2022-10-09T14:31:32.464Z,18.80
2022-10-09T14:34:00.943Z,18.70
2022-10-09T14:36:29.924Z,18.70
2022-10-09T14:39:00.479Z,18.60
2022-10-09T14:41:30.073Z,18.60
2022-10-09T14:44:01.291Z,18.70
2022-10-09T14:46:33.701Z,18.60
2022-10-09T14:49:07.315Z,18.50
2022-10-09T14:51:37.511Z,18.50
2022-10-09T14:54:08.509Z,18.40
2022-10-09T14:56:37.168Z,18.40
2022-10-09T14:59:06.343Z,18.30
2022-10-09T15:01:34.865Z,18.20
2022-10-09T15:04:04.097Z,18.10
2022-10-09T15:06:33.107Z,18.10
2022-10-09T15:09:04.823Z,18.00
2022-10-09T15:11:36.724Z,18.00
2022-10-09T15:14:05.395Z,17.90
2022-10-09T15:16:33.604Z,17.90
2022-10-09T15:19:02.066Z,17.80
2022-10-09T15:21:31.820Z,17.80
2022-10-09T15:24:01.787Z,17.80
2022-10-09T15:26:32.776Z,17.60
2022-10-09T15:29:04.965Z,17.60
2022-10-09T15:31:34.619Z,17.50
2022-10-09T15:34:03.497Z,17.50
2022-10-09T15:36:35.195Z,17.50
2022-10-09T15:39:06.042Z,17.40
2022-10-09T15:41:35.955Z,17.40
2022-10-09T15:44:07.104Z,17.20
2022-10-09T15:46:35.836Z,17.20
2022-10-09T15:49:04.047Z,17.10
2022-10-09T15:51:33.260Z,17.00
2022-10-09T15:54:02.220Z,16.90
2022-10-09T15:56:32.312Z,16.90
2022-10-09T15:59:02.080Z,16.80
2022-10-09T16:01:31.759Z,16.80
2022-10-09T16:03:59.949Z,16.70
2022-10-09T16:06:28.514Z,16.60
2022-10-09T16:08:57.671Z,16.50
2022-10-09T16:11:27.001Z,16.40
2022-10-09T16:13:56.330Z,16.40
2022-10-09T16:16:28.470Z,16.30
2022-10-09T16:19:00.106Z,16.20
2022-10-09T16:21:29.689Z,16.10
2022-10-09T16:23:59.865Z,16.00
2022-10-09T16:26:29.473Z,15.90
2022-10-09T16:28:58.105Z,15.80
2022-10-09T16:31:28.964Z,15.70
2022-10-09T16:33:58.891Z,15.60
2022-10-09T16:36:27.133Z,15.50
2022-10-09T16:38:56.477Z,15.40
2022-10-09T16:41:24.927Z,15.30
2022-10-09T16:43:54.838Z,15.10
2022-10-09T16:46:24.842Z,15.00
2022-10-09T16:48:55.136Z,14.90
2022-10-09T16:51:26.701Z,14.70
2022-10-09T16:53:57.760Z,14.70
2022-10-09T16:56:29.604Z,14.50
2022-10-09T16:59:00.067Z,14.40
2022-10-09T17:01:29.216Z,14.30
2022-10-09T17:03:58.232Z,14.20
2022-10-09T17:06:28.288Z,14.00
2022-10-09T17:08:58.688Z,13.90
2022-10-09T17:11:28.304Z,13.80
2022-10-09T17:13:57.340Z,13.60
2022-10-09T17:16:29.173Z,13.50
2022-10-09T17:18:57.777Z,13.40
2022-10-09T17:21:30.978Z,13.30
2022-10-09T17:24:04.653Z,13.20
2022-10-09T17:26:33.042Z,13.10
2022-10-09T17:29:02.186Z,12.90
2022-10-09T17:31:31.164Z,12.90
2022-10-09T17:34:02.149Z,12.70
2022-10-09T17:36:34.795Z,12.70
2022-10-09T17:39:03.865Z,12.60
2022-10-09T17:41:32.768Z,12.50
2022-10-09T17:44:01.368Z,12.40
2022-10-09T17:46:30.468Z,12.30
2022-10-09T17:48:59.484Z,12.20
2022-10-09T17:51:29.968Z,12.10
2022-10-09T17:54:03.388Z,12.00
2022-10-09T17:56:33.967Z,11.90
2022-10-09T17:59:02.902Z,11.80
2022-10-09T18:01:31.957Z,11.80
2022-10-09T18:04:00.424Z,11.70
2022-10-09T18:06:31.774Z,11.70
2022-10-09T18:09:02.356Z,11.60
2022-10-09T18:11:30.960Z,11.50
2022-10-09T18:14:00.385Z,11.40
2022-10-09T18:16:35.895Z,11.30
2022-10-09T18:19:06.996Z,11.20
2022-10-09T18:21:35.648Z,11.10
2022-10-09T18:24:05.761Z,11.10
2022-10-09T18:26:34.154Z,11.00
2022-10-09T18:29:02.927Z,10.90
2022-10-09T18:31:31.492Z,10.90
2022-10-09T18:34:00.754Z,10.90
2022-10-09T18:36:33.560Z,10.80
2022-10-09T18:39:04.707Z,10.70
2022-10-09T18:41:34.517Z,10.70
2022-10-09T18:44:02.990Z,10.70
2022-10-09T18:46:35.885Z,10.60
2022-10-09T18:49:04.512Z,10.60
2022-10-09T18:51:33.325Z,10.50
2022-10-09T18:54:03.895Z,10.50
2022-10-09T18:56:35.206Z,10.40
2022-10-09T18:59:06.568Z,10.30
2022-10-09T19:01:34.844Z,10.30
2022-10-09T19:04:03.195Z,10.30
2022-10-09T19:06:31.682Z,10.30
2022-10-09T19:09:00.964Z,10.20
2022-10-09T19:11:29.686Z,10.20
2022-10-09T19:14:00.737Z,10.10
2022-10-09T19:16:31.591Z,10.10
2022-10-09T19:19:00.697Z,10.00
2022-10-09T19:21:29.225Z,9.90
2022-10-09T19:24:03.288Z,9.90
2022-10-09T19:26:32.758Z,9.80
2022-10-09T19:29:02.645Z,9.80
2022-10-09T19:31:31.944Z,9.80
2022-10-09T19:34:01.511Z,9.70
2022-10-09T19:36:33.134Z,9.60
2022-10-09T19:39:01.780Z,9.60
2022-10-09T19:41:30.074Z,9.50
2022-10-09T19:43:59.096Z,9.40
2022-10-09T19:46:29.274Z,9.40
2022-10-09T19:48:57.529Z,9.30
2022-10-09T19:51:27.497Z,9.30
2022-10-09T19:53:55.753Z,9.20
2022-10-09T19:56:26.196Z,9.10
2022-10-09T19:58:55.708Z,9.10
2022-10-09T20:01:25.623Z,9.10
2022-10-09T20:03:57.135Z,9.00
2022-10-09T20:06:25.760Z,9.00
2022-10-09T20:08:54.139Z,9.00
2022-10-09T20:11:23.026Z,8.90
2022-10-09T20:13:55.714Z,8.90
2022-10-09T20:16:25.409Z,8.90
2022-10-09T20:18:57.012Z,8.80
2022-10-09T20:21:25.485Z,8.70
2022-10-09T20:23:54.312Z,8.70
2022-10-09T20:26:23.060Z,8.60
2022-10-09T20:28:53.744Z,8.60
2022-10-09T20:31:25.448Z,8.60
2022-10-09T20:33:54.717Z,8.50
2022-10-09T20:36:26.650Z,8.50
2022-10-09T20:38:59.008Z,8.40
2022-10-09T20:41:28.556Z,8.40
2022-10-09T20:43:58.151Z,8.30
2022-10-09T20:46:28.045Z,8.30
2022-10-09T20:48:56.569Z,8.20
2022-10-09T20:51:26.929Z,8.30
2022-10-09T20:53:57.168Z,8.20
2022-10-09T20:56:27.467Z,8.20
2022-10-09T20:58:56.073Z,8.10
2022-10-09T21:01:24.920Z,8.10
2022-10-09T21:03:53.427Z,8.10
2022-10-09T21:06:22.708Z,8.00
2022-10-09T21:08:52.391Z,8.00
2022-10-09T21:11:21.051Z,7.90
2022-10-09T21:13:50.789Z,7.90
2022-10-09T21:16:21.563Z,7.90
2022-10-09T21:18:53.648Z,7.80
2022-10-09T21:21:22.077Z,7.80
2022-10-09T21:23:53.715Z,7.80
2022-10-09T21:26:24.128Z,7.70
2022-10-09T21:28:58.300Z,7.60
2022-10-09T21:31:29.332Z,7.60
2022-10-09T21:33:58.447Z,7.60
2022-10-09T21:36:33.709Z,7.50
2022-10-09T21:39:04.183Z,7.50
2022-10-09T21:41:32.966Z,7.50
2022-10-09T21:44:01.506Z,7.50
2022-10-09T21:46:29.909Z,7.40
2022-10-09T21:48:58.497Z,7.40
2022-10-09T21:51:27.605Z,7.30
2022-10-09T21:53:56.283Z,7.30
2022-10-09T21:56:26.161Z,7.30
2022-10-09T21:58:54.484Z,7.20
2022-10-09T22:01:22.738Z,7.20
2022-10-09T22:03:51.157Z,7.20
2022-10-09T22:06:19.651Z,7.20
2022-10-09T22:08:48.586Z,7.20
2022-10-09T22:11:17.318Z,7.20
2022-10-09T22:13:46.943Z,7.10
2022-10-09T22:16:16.389Z,7.10
2022-10-09T22:18:44.636Z,7.10
2022-10-09T22:21:14.159Z,7.00
2022-10-09T22:23:42.878Z,7.00
2022-10-09T22:26:13.916Z,7.00
2022-10-09T22:28:42.258Z,7.00
2022-10-09T22:31:14.211Z,7.00
2022-10-09T22:33:42.945Z,7.00
2022-10-09T22:36:13.267Z,7.00
2022-10-09T22:38:43.094Z,7.00
2022-10-09T22:41:13.713Z,6.90
2022-10-09T22:43:43.044Z,6.90
2022-10-09T22:46:14.719Z,6.90
2022-10-09T22:48:43.443Z,6.90
2022-10-09T22:51:13.414Z,6.90
2022-10-09T22:53:42.792Z,6.90
2022-10-09T22:56:14.823Z,6.80
2022-10-09T22:58:43.296Z,6.80
2022-10-09T23:01:15.830Z,6.80
2022-10-09T23:03:44.303Z,6.80
2022-10-09T23:06:14.492Z,6.80
2022-10-09T23:08:44.951Z,6.70
2022-10-09T23:11:14.344Z,6.90
2022-10-09T23:13:43.024Z,6.70
2022-10-09T23:16:14.352Z,6.70
2022-10-09T23:18:44.067Z,6.70
2022-10-09T23:21:15.941Z,6.70
2022-10-09T23:23:46.063Z,6.70
2022-10-09T23:26:16.205Z,6.70
2022-10-09T23:28:49.578Z,6.70
2022-10-09T23:31:19.243Z,6.70
2022-10-09T23:33:47.710Z,6.70
2022-10-09T23:36:18.867Z,6.70
2022-10-09T23:38:47.549Z,6.70
2022-10-09T23:41:17.527Z,6.70
2022-10-09T23:43:46.348Z,6.70
2022-10-09T23:46:16.849Z,6.70
2022-10-09T23:48:47.701Z,6.60
2022-10-09T23:51:16.565Z,6.60
2022-10-09T23:53:45.389Z,6.70
2022-10-09T23:56:18.232Z,6.70
2022-10-09T23:58:47.146Z,6.70
